sensor_id;sensor_type;location;lat;lon;timestamp;temperature;humidity
1383;DHT22;685;47.196;11.880;2023-03-31T00:00:34;7.00;99.90
1383;DHT22;685;47.196;11.880;2023-03-31T00:03:01;6.90;99.90
1383;DHT22;685;47.196;11.880;2023-03-31T00:05:35;6.90;99.90
1383;DHT22;685;47.196;11.880;2023-03-31T00:08:02;6.80;99.90
1383;DHT22;685;47.196;11.880;2023-03-31T00:10:32;6.60;99.90
1383;DHT22;685;47.196;11.880;2023-03-31T00:13:00;6.50;99.90
1383;DHT22;685;47.196;11.880;2023-03-31T00:15:28;6.50;99.90
1383;DHT22;685;47.196;11.880;2023-03-31T00:17:56;6.70;99.90
1383;DHT22;685;47.196;11.880;2023-03-31T00:20:25;6.50;99.90
1383;DHT22;685;47.196;11.880;2023-03-31T00:22:51;6.50;99.90
1383;DHT22;685;47.196;11.880;2023-03-31T00:25:19;6.60;99.90
1383;DHT22;685;47.196;11.880;2023-03-31T00:27:48;6.60;99.90
1383;DHT22;685;47.196;11.880;2023-03-31T00:30:17;6.70;99.90
1383;DHT22;685;47.196;11.880;2023-03-31T00:32:44;6.60;99.90
1383;DHT22;685;47.196;11.880;2023-03-31T00:35:11;6.50;99.90
1383;DHT22;685;47.196;11.880;2023-03-31T00:37:38;6.40;99.90
1383;DHT22;685;47.196;11.880;2023-03-31T00:40:08;6.20;99.90
1383;DHT22;685;47.196;11.880;2023-03-31T00:42:39;6.30;99.90
1383;DHT22;685;47.196;11.880;2023-03-31T00:45:26;6.30;99.90
1383;DHT22;685;47.196;11.880;2023-03-31T00:47:56;6.40;99.90
1383;DHT22;685;47.196;11.880;2023-03-31T00:50:25;6.20;99.90
1383;DHT22;685;47.196;11.880;2023-03-31T00:52:56;6.30;99.90
1383;DHT22;685;47.196;11.880;2023-03-31T00:55:29;6.30;99.90
1383;DHT22;685;47.196;11.880;2023-03-31T00:57:57;6.40;99.90
1383;DHT22;685;47.196;11.880;2023-03-31T01:00:27;6.30;99.90
1383;DHT22;685;47.196;11.880;2023-03-31T01:02:56;6.30;99.90
1383;DHT22;685;47.196;11.880;2023-03-31T01:05:27;6.30;99.90
1383;DHT22;685;47.196;11.880;2023-03-31T01:07:57;6.40;99.90
1383;DHT22;685;47.196;11.880;2023-03-31T01:10:25;6.40;99.90
1383;DHT22;685;47.196;11.880;2023-03-31T01:12:54;6.20;99.90
1383;DHT22;685;47.196;11.880;2023-03-31T01:15:22;5.80;99.90
1383;DHT22;685;47.196;11.880;2023-03-31T01:17:51;5.80;99.90
1383;DHT22;685;47.196;11.880;2023-03-31T01:20:25;5.90;99.90
1383;DHT22;685;47.196;11.880;2023-03-31T01:26:39;6.10;99.90
1383;DHT22;685;47.196;11.880;2023-03-31T01:29:19;6.10;99.90
1383;DHT22;685;47.196;11.880;2023-03-31T01:32:14;6.20;99.90
1383;DHT22;685;47.196;11.880;2023-03-31T01:41:16;5.80;99.90
1383;DHT22;685;47.196;11.880;2023-03-31T01:43:52;5.80;99.90
1383;DHT22;685;47.196;11.880;2023-03-31T01:46:26;6.10;99.90
1383;DHT22;685;47.196;11.880;2023-03-31T01:49:00;6.00;99.90
1383;DHT22;685;47.196;11.880;2023-03-31T01:51:33;6.00;99.90
1383;DHT22;685;47.196;11.880;2023-03-31T01:54:06;5.90;99.90
1383;DHT22;685;47.196;11.880;2023-03-31T01:56:39;5.70;99.90
1383;DHT22;685;47.196;11.880;2023-03-31T01:59:10;5.50;99.90
1383;DHT22;685;47.196;11.880;2023-03-31T02:01:41;5.70;99.90
1383;DHT22;685;47.196;11.880;2023-03-31T02:04:16;5.80;99.90
1383;DHT22;685;47.196;11.880;2023-03-31T02:06:47;5.80;99.90
1383;DHT22;685;47.196;11.880;2023-03-31T02:09:20;5.80;99.90
1383;DHT22;685;47.196;11.880;2023-03-31T02:11:50;5.70;99.90
1383;DHT22;685;47.196;11.880;2023-03-31T02:14:20;5.60;99.90
1383;DHT22;685;47.196;11.880;2023-03-31T02:16:51;5.40;99.90
1383;DHT22;685;47.196;11.880;2023-03-31T02:19:25;5.50;99.90
1383;DHT22;685;47.196;11.880;2023-03-31T02:21:53;5.70;99.90
1383;DHT22;685;47.196;11.880;2023-03-31T02:24:24;5.80;99.90
1383;DHT22;685;47.196;11.880;2023-03-31T02:26:58;5.80;99.90
1383;DHT22;685;47.196;11.880;2023-03-31T02:29:27;5.90;99.90
1383;DHT22;685;47.196;11.880;2023-03-31T02:31:58;5.90;99.90
1383;DHT22;685;47.196;11.880;2023-03-31T02:34:26;5.70;99.90
1383;DHT22;685;47.196;11.880;2023-03-31T02:36:54;5.80;99.90
1383;DHT22;685;47.196;11.880;2023-03-31T02:39:24;5.90;99.90
1383;DHT22;685;47.196;11.880;2023-03-31T02:41:54;5.80;99.90
1383;DHT22;685;47.196;11.880;2023-03-31T02:44:21;5.80;99.90
1383;DHT22;685;47.196;11.880;2023-03-31T02:46:49;6.00;99.90
1383;DHT22;685;47.196;11.880;2023-03-31T02:49:17;6.00;99.90
1383;DHT22;685;47.196;11.880;2023-03-31T02:52:22;5.90;99.90
1383;DHT22;685;47.196;11.880;2023-03-31T02:55:22;5.90;99.90
1383;DHT22;685;47.196;11.880;2023-03-31T02:58:13;5.80;99.90
1383;DHT22;685;47.196;11.880;2023-03-31T03:00:53;5.80;99.90
1383;DHT22;685;47.196;11.880;2023-03-31T03:03:31;5.80;99.90
1383;DHT22;685;47.196;11.880;2023-03-31T03:06:06;5.80;99.90
1383;DHT22;685;47.196;11.880;2023-03-31T03:08:46;5.80;99.90
1383;DHT22;685;47.196;11.880;2023-03-31T03:11:23;5.90;99.90
1383;DHT22;685;47.196;11.880;2023-03-31T03:13:56;6.00;99.90
1383;DHT22;685;47.196;11.880;2023-03-31T03:16:29;5.70;99.90
1383;DHT22;685;47.196;11.880;2023-03-31T03:18:59;5.90;99.90
1383;DHT22;685;47.196;11.880;2023-03-31T03:21:26;6.00;99.90
1383;DHT22;685;47.196;11.880;2023-03-31T03:23:54;6.00;99.90
1383;DHT22;685;47.196;11.880;2023-03-31T03:26:21;5.70;99.90
1383;DHT22;685;47.196;11.880;2023-03-31T03:28:54;5.70;99.90
1383;DHT22;685;47.196;11.880;2023-03-31T03:31:22;5.60;99.90
1383;DHT22;685;47.196;11.880;2023-03-31T03:33:50;5.50;99.90
1383;DHT22;685;47.196;11.880;2023-03-31T03:36:17;5.50;99.90
1383;DHT22;685;47.196;11.880;2023-03-31T03:38:44;5.50;99.90
1383;DHT22;685;47.196;11.880;2023-03-31T03:41:11;5.60;99.90
1383;DHT22;685;47.196;11.880;2023-03-31T03:43:38;5.70;99.90
1383;DHT22;685;47.196;11.880;2023-03-31T03:46:07;5.70;99.90
1383;DHT22;685;47.196;11.880;2023-03-31T03:48:34;5.90;99.90
1383;DHT22;685;47.196;11.880;2023-03-31T03:51:01;5.80;99.90
1383;DHT22;685;47.196;11.880;2023-03-31T03:53:28;5.60;99.90
1383;DHT22;685;47.196;11.880;2023-03-31T03:55:55;5.80;99.90
1383;DHT22;685;47.196;11.880;2023-03-31T03:58:23;5.80;99.90
1383;DHT22;685;47.196;11.880;2023-03-31T04:00:50;5.60;99.90
1383;DHT22;685;47.196;11.880;2023-03-31T04:03:19;5.60;99.90
1383;DHT22;685;47.196;11.880;2023-03-31T04:05:46;5.70;99.90
1383;DHT22;685;47.196;11.880;2023-03-31T04:08:15;5.70;99.90
1383;DHT22;685;47.196;11.880;2023-03-31T04:10:43;5.70;99.90
1383;DHT22;685;47.196;11.880;2023-03-31T04:13:11;5.70;99.90
1383;DHT22;685;47.196;11.880;2023-03-31T04:15:38;5.80;99.90
1383;DHT22;685;47.196;11.880;2023-03-31T04:18:05;5.70;99.90
1383;DHT22;685;47.196;11.880;2023-03-31T04:20:36;5.60;99.90
1383;DHT22;685;47.196;11.880;2023-03-31T04:23:03;5.60;99.90
1383;DHT22;685;47.196;11.880;2023-03-31T04:25:34;5.60;99.90
1383;DHT22;685;47.196;11.880;2023-03-31T04:28:03;5.70;99.90
1383;DHT22;685;47.196;11.880;2023-03-31T04:30:32;5.70;99.90
1383;DHT22;685;47.196;11.880;2023-03-31T04:33:00;5.40;99.90
1383;DHT22;685;47.196;11.880;2023-03-31T04:35:29;5.50;99.90
1383;DHT22;685;47.196;11.880;2023-03-31T04:38:08;5.70;99.90
1383;DHT22;685;47.196;11.880;2023-03-31T04:40:35;5.70;99.90
1383;DHT22;685;47.196;11.880;2023-03-31T04:43:04;5.70;99.90
1383;DHT22;685;47.196;11.880;2023-03-31T04:45:31;5.60;99.90
1383;DHT22;685;47.196;11.880;2023-03-31T04:47:58;5.40;99.90
1383;DHT22;685;47.196;11.880;2023-03-31T04:50:25;5.20;99.90
1383;DHT22;685;47.196;11.880;2023-03-31T04:52:52;5.20;99.90
1383;DHT22;685;47.196;11.880;2023-03-31T04:55:21;5.20;99.90
1383;DHT22;685;47.196;11.880;2023-03-31T04:57:48;5.10;99.90
1383;DHT22;685;47.196;11.880;2023-03-31T05:00:16;5.00;99.90
1383;DHT22;685;47.196;11.880;2023-03-31T05:02:44;5.00;99.90
1383;DHT22;685;47.196;11.880;2023-03-31T05:05:11;5.20;99.90
1383;DHT22;685;47.196;11.880;2023-03-31T05:07:38;5.30;99.90
1383;DHT22;685;47.196;11.880;2023-03-31T05:10:05;5.30;99.90
1383;DHT22;685;47.196;11.880;2023-03-31T05:12:34;4.90;99.90
1383;DHT22;685;47.196;11.880;2023-03-31T05:15:02;4.50;99.90
1383;DHT22;685;47.196;11.880;2023-03-31T05:17:30;4.50;99.90
1383;DHT22;685;47.196;11.880;2023-03-31T05:19:57;4.50;99.90
1383;DHT22;685;47.196;11.880;2023-03-31T05:22:24;4.80;99.90
1383;DHT22;685;47.196;11.880;2023-03-31T05:24:51;4.90;99.90
1383;DHT22;685;47.196;11.880;2023-03-31T05:27:18;5.00;99.90
1383;DHT22;685;47.196;11.880;2023-03-31T05:29:47;5.30;99.90
1383;DHT22;685;47.196;11.880;2023-03-31T05:32:15;5.40;99.90
1383;DHT22;685;47.196;11.880;2023-03-31T05:34:42;5.60;99.90
1383;DHT22;685;47.196;11.880;2023-03-31T05:37:09;5.60;99.90
1383;DHT22;685;47.196;11.880;2023-03-31T05:39:36;5.70;99.90
1383;DHT22;685;47.196;11.880;2023-03-31T05:42:03;5.50;99.90
1383;DHT22;685;47.196;11.880;2023-03-31T05:44:30;5.30;99.90
1383;DHT22;685;47.196;11.880;2023-03-31T05:46:58;5.20;99.90
1383;DHT22;685;47.196;11.880;2023-03-31T05:49:25;5.40;99.90
1383;DHT22;685;47.196;11.880;2023-03-31T05:51:52;5.40;99.90
1383;DHT22;685;47.196;11.880;2023-03-31T05:54:19;5.10;99.90
1383;DHT22;685;47.196;11.880;2023-03-31T05:56:47;5.20;99.90
1383;DHT22;685;47.196;11.880;2023-03-31T05:59:14;5.20;99.90
1383;DHT22;685;47.196;11.880;2023-03-31T06:01:41;5.40;99.90
1383;DHT22;685;47.196;11.880;2023-03-31T06:04:09;5.60;99.90
1383;DHT22;685;47.196;11.880;2023-03-31T06:06:36;5.70;99.90
1383;DHT22;685;47.196;11.880;2023-03-31T06:09:04;5.90;99.90
1383;DHT22;685;47.196;11.880;2023-03-31T06:11:31;5.70;99.90
1383;DHT22;685;47.196;11.880;2023-03-31T06:13:58;5.60;99.90
1383;DHT22;685;47.196;11.880;2023-03-31T06:16:25;5.60;99.90
1383;DHT22;685;47.196;11.880;2023-03-31T06:18:53;5.70;99.90
1383;DHT22;685;47.196;11.880;2023-03-31T06:21:21;5.70;99.90
1383;DHT22;685;47.196;11.880;2023-03-31T06:23:48;5.80;99.90
1383;DHT22;685;47.196;11.880;2023-03-31T06:26:19;6.00;99.90
1383;DHT22;685;47.196;11.880;2023-03-31T06:28:47;6.00;99.90
1383;DHT22;685;47.196;11.880;2023-03-31T06:31:16;5.80;99.90
1383;DHT22;685;47.196;11.880;2023-03-31T06:33:43;5.60;99.90
1383;DHT22;685;47.196;11.880;2023-03-31T06:36:12;5.70;99.90
1383;DHT22;685;47.196;11.880;2023-03-31T06:38:42;5.80;99.90
1383;DHT22;685;47.196;11.880;2023-03-31T06:41:11;6.00;99.90
1383;DHT22;685;47.196;11.880;2023-03-31T06:43:39;5.90;99.90
1383;DHT22;685;47.196;11.880;2023-03-31T06:46:06;5.90;99.90
1383;DHT22;685;47.196;11.880;2023-03-31T06:48:33;6.00;99.90
1383;DHT22;685;47.196;11.880;2023-03-31T06:51:03;6.20;99.90
1383;DHT22;685;47.196;11.880;2023-03-31T06:53:30;6.20;99.90
1383;DHT22;685;47.196;11.880;2023-03-31T06:55:59;6.40;99.90
1383;DHT22;685;47.196;11.880;2023-03-31T06:58:26;6.30;99.90
1383;DHT22;685;47.196;11.880;2023-03-31T07:00:53;6.30;99.90
1383;DHT22;685;47.196;11.880;2023-03-31T07:03:20;6.30;99.90
1383;DHT22;685;47.196;11.880;2023-03-31T07:05:50;6.30;99.90
1383;DHT22;685;47.196;11.880;2023-03-31T07:08:17;6.10;99.90
1383;DHT22;685;47.196;11.880;2023-03-31T07:10:44;6.10;99.90
1383;DHT22;685;47.196;11.880;2023-03-31T07:13:15;6.20;99.90
1383;DHT22;685;47.196;11.880;2023-03-31T07:15:42;6.40;99.90
1383;DHT22;685;47.196;11.880;2023-03-31T07:18:09;6.60;99.90
1383;DHT22;685;47.196;11.880;2023-03-31T07:20:37;6.50;99.90
1383;DHT22;685;47.196;11.880;2023-03-31T07:23:04;6.60;99.90
1383;DHT22;685;47.196;11.880;2023-03-31T07:25:33;6.50;99.90
1383;DHT22;685;47.196;11.880;2023-03-31T07:28:00;6.40;99.90
1383;DHT22;685;47.196;11.880;2023-03-31T07:30:29;6.40;99.90
1383;DHT22;685;47.196;11.880;2023-03-31T07:32:57;6.40;99.90
1383;DHT22;685;47.196;11.880;2023-03-31T07:35:24;6.40;99.90
1383;DHT22;685;47.196;11.880;2023-03-31T07:37:51;6.40;99.90
1383;DHT22;685;47.196;11.880;2023-03-31T07:40:20;6.30;99.90
1383;DHT22;685;47.196;11.880;2023-03-31T07:42:48;6.20;99.90
1383;DHT22;685;47.196;11.880;2023-03-31T07:45:17;6.30;99.90
1383;DHT22;685;47.196;11.880;2023-03-31T07:47:45;6.30;99.90
1383;DHT22;685;47.196;11.880;2023-03-31T07:50:14;6.60;99.90
1383;DHT22;685;47.196;11.880;2023-03-31T07:52:42;6.90;99.90
1383;DHT22;685;47.196;11.880;2023-03-31T07:55:09;6.90;99.90
1383;DHT22;685;47.196;11.880;2023-03-31T07:57:37;6.90;99.90
1383;DHT22;685;47.196;11.880;2023-03-31T08:00:06;7.00;99.90
1383;DHT22;685;47.196;11.880;2023-03-31T08:02:36;7.20;99.90
1383;DHT22;685;47.196;11.880;2023-03-31T08:05:06;7.00;99.90
1383;DHT22;685;47.196;11.880;2023-03-31T08:07:33;6.90;99.90
1383;DHT22;685;47.196;11.880;2023-03-31T08:10:01;7.20;99.90
1383;DHT22;685;47.196;11.880;2023-03-31T08:12:29;7.20;99.90
1383;DHT22;685;47.196;11.880;2023-03-31T08:14:56;7.40;99.90
1383;DHT22;685;47.196;11.880;2023-03-31T08:17:23;7.50;99.90
1383;DHT22;685;47.196;11.880;2023-03-31T08:19:49;7.70;99.90
1383;DHT22;685;47.196;11.880;2023-03-31T08:22:18;8.00;99.90
1383;DHT22;685;47.196;11.880;2023-03-31T08:24:46;8.50;99.90
1383;DHT22;685;47.196;11.880;2023-03-31T08:27:13;8.50;99.90
1383;DHT22;685;47.196;11.880;2023-03-31T08:29:40;8.40;99.90
1383;DHT22;685;47.196;11.880;2023-03-31T08:32:06;8.30;99.90
1383;DHT22;685;47.196;11.880;2023-03-31T08:34:33;8.10;99.90
1383;DHT22;685;47.196;11.880;2023-03-31T08:37:01;8.20;99.90
1383;DHT22;685;47.196;11.880;2023-03-31T08:39:29;8.30;99.90
1383;DHT22;685;47.196;11.880;2023-03-31T08:41:59;8.30;99.90
1383;DHT22;685;47.196;11.880;2023-03-31T08:44:31;8.50;99.90
1383;DHT22;685;47.196;11.880;2023-03-31T08:47:02;8.50;99.90
1383;DHT22;685;47.196;11.880;2023-03-31T08:49:35;8.70;99.90
1383;DHT22;685;47.196;11.880;2023-03-31T08:52:04;8.70;99.90
1383;DHT22;685;47.196;11.880;2023-03-31T08:54:39;8.80;99.90
1383;DHT22;685;47.196;11.880;2023-03-31T08:57:14;8.90;99.90
1383;DHT22;685;47.196;11.880;2023-03-31T08:59:43;8.60;99.90
1383;DHT22;685;47.196;11.880;2023-03-31T09:02:19;8.60;99.90
1383;DHT22;685;47.196;11.880;2023-03-31T09:07:48;8.70;99.90
1383;DHT22;685;47.196;11.880;2023-03-31T09:10:31;8.50;99.90
1383;DHT22;685;47.196;11.880;2023-03-31T09:13:09;8.50;99.90
1383;DHT22;685;47.196;11.880;2023-03-31T09:15:46;8.60;99.90
1383;DHT22;685;47.196;11.880;2023-03-31T09:18:17;8.90;99.90
1383;DHT22;685;47.196;11.880;2023-03-31T09:20:48;9.00;99.90
1383;DHT22;685;47.196;11.880;2023-03-31T09:23:23;9.10;99.90
1383;DHT22;685;47.196;11.880;2023-03-31T09:25:54;9.30;99.90
1383;DHT22;685;47.196;11.880;2023-03-31T09:28:33;9.60;99.90
1383;DHT22;685;47.196;11.880;2023-03-31T09:31:06;9.60;99.90
1383;DHT22;685;47.196;11.880;2023-03-31T09:33:37;9.80;99.90
1383;DHT22;685;47.196;11.880;2023-03-31T09:36:13;9.80;99.90
1383;DHT22;685;47.196;11.880;2023-03-31T09:38:42;10.10;99.90
1383;DHT22;685;47.196;11.880;2023-03-31T09:41:10;10.30;99.90
1383;DHT22;685;47.196;11.880;2023-03-31T09:43:39;10.40;99.90
1383;DHT22;685;47.196;11.880;2023-03-31T09:46:15;10.50;99.90
1383;DHT22;685;47.196;11.880;2023-03-31T09:48:50;10.60;99.90
1383;DHT22;685;47.196;11.880;2023-03-31T09:51:22;10.70;99.90
1383;DHT22;685;47.196;11.880;2023-03-31T09:53:53;10.80;99.90
1383;DHT22;685;47.196;11.880;2023-03-31T09:56:36;11.00;99.90
1383;DHT22;685;47.196;11.880;2023-03-31T09:59:14;11.20;99.90
1383;DHT22;685;47.196;11.880;2023-03-31T10:01:41;11.20;99.90
1383;DHT22;685;47.196;11.880;2023-03-31T10:04:16;11.30;99.90
1383;DHT22;685;47.196;11.880;2023-03-31T10:06:45;11.20;99.90
1383;DHT22;685;47.196;11.880;2023-03-31T10:09:12;11.20;99.90
1383;DHT22;685;47.196;11.880;2023-03-31T10:11:51;11.30;99.90
1383;DHT22;685;47.196;11.880;2023-03-31T10:14:24;11.60;99.90
1383;DHT22;685;47.196;11.880;2023-03-31T10:16:53;11.60;99.90
1383;DHT22;685;47.196;11.880;2023-03-31T10:19:22;11.60;99.90
1383;DHT22;685;47.196;11.880;2023-03-31T10:21:55;11.60;99.90
1383;DHT22;685;47.196;11.880;2023-03-31T10:24:23;11.80;99.90
1383;DHT22;685;47.196;11.880;2023-03-31T10:26:54;11.90;99.90
1383;DHT22;685;47.196;11.880;2023-03-31T10:29:24;11.90;99.90
1383;DHT22;685;47.196;11.880;2023-03-31T10:31:51;12.10;99.90
1383;DHT22;685;47.196;11.880;2023-03-31T10:34:18;12.20;99.90
1383;DHT22;685;47.196;11.880;2023-03-31T10:36:47;12.20;99.90
1383;DHT22;685;47.196;11.880;2023-03-31T10:39:16;12.60;99.90
1383;DHT22;685;47.196;11.880;2023-03-31T10:41:49;12.70;99.90
1383;DHT22;685;47.196;11.880;2023-03-31T10:44:35;12.70;99.90
1383;DHT22;685;47.196;11.880;2023-03-31T10:47:06;12.60;99.90
1383;DHT22;685;47.196;11.880;2023-03-31T10:49:43;12.90;99.90
1383;DHT22;685;47.196;11.880;2023-03-31T10:52:18;12.70;99.90
1383;DHT22;685;47.196;11.880;2023-03-31T10:54:47;13.60;99.90
1383;DHT22;685;47.196;11.880;2023-03-31T10:57:15;13.70;99.90
1383;DHT22;685;47.196;11.880;2023-03-31T10:59:56;13.70;99.90
1383;DHT22;685;47.196;11.880;2023-03-31T11:03:08;13.70;99.90
1383;DHT22;685;47.196;11.880;2023-03-31T11:05:45;13.60;99.90
1383;DHT22;685;47.196;11.880;2023-03-31T11:08:36;13.60;99.90
1383;DHT22;685;47.196;11.880;2023-03-31T11:11:21;13.90;99.90
1383;DHT22;685;47.196;11.880;2023-03-31T11:13:55;13.90;99.90
1383;DHT22;685;47.196;11.880;2023-03-31T11:16:32;13.70;99.90
1383;DHT22;685;47.196;11.880;2023-03-31T11:19:14;13.60;99.90
1383;DHT22;685;47.196;11.880;2023-03-31T11:21:56;13.20;99.90
1383;DHT22;685;47.196;11.880;2023-03-31T11:24:34;13.10;99.90
1383;DHT22;685;47.196;11.880;2023-03-31T11:27:13;13.10;99.90
1383;DHT22;685;47.196;11.880;2023-03-31T11:29:47;13.00;99.90
1383;DHT22;685;47.196;11.880;2023-03-31T11:32:30;13.00;99.90
1383;DHT22;685;47.196;11.880;2023-03-31T11:35:38;12.90;99.90
1383;DHT22;685;47.196;11.880;2023-03-31T11:38:26;12.80;99.90
1383;DHT22;685;47.196;11.880;2023-03-31T11:40:58;12.80;99.90
1383;DHT22;685;47.196;11.880;2023-03-31T11:43:31;12.70;99.90
1383;DHT22;685;47.196;11.880;2023-03-31T11:46:02;12.80;99.90
1383;DHT22;685;47.196;11.880;2023-03-31T11:48:39;12.70;99.90
1383;DHT22;685;47.196;11.880;2023-03-31T11:51:12;12.70;99.90
1383;DHT22;685;47.196;11.880;2023-03-31T11:53:41;12.70;99.90
1383;DHT22;685;47.196;11.880;2023-03-31T11:56:10;12.60;99.90
1383;DHT22;685;47.196;11.880;2023-03-31T11:58:40;12.60;99.90
1383;DHT22;685;47.196;11.880;2023-03-31T12:01:16;12.50;99.90
1383;DHT22;685;47.196;11.880;2023-03-31T12:03:51;12.50;99.90
1383;DHT22;685;47.196;11.880;2023-03-31T12:06:22;12.40;99.90
1383;DHT22;685;47.196;11.880;2023-03-31T12:09:01;12.40;99.90
1383;DHT22;685;47.196;11.880;2023-03-31T12:11:37;12.20;99.90
1383;DHT22;685;47.196;11.880;2023-03-31T12:14:15;12.20;99.90
1383;DHT22;685;47.196;11.880;2023-03-31T12:16:45;12.10;99.90
1383;DHT22;685;47.196;11.880;2023-03-31T12:19:17;12.20;99.90
1383;DHT22;685;47.196;11.880;2023-03-31T12:21:50;12.20;99.90
1383;DHT22;685;47.196;11.880;2023-03-31T12:24:19;12.20;99.90
1383;DHT22;685;47.196;11.880;2023-03-31T12:26:55;12.10;99.90
1383;DHT22;685;47.196;11.880;2023-03-31T12:29:28;11.90;99.90
1383;DHT22;685;47.196;11.880;2023-03-31T12:31:58;11.90;99.90
1383;DHT22;685;47.196;11.880;2023-03-31T12:34:29;12.00;99.90
1383;DHT22;685;47.196;11.880;2023-03-31T12:37:22;11.90;99.90
1383;DHT22;685;47.196;11.880;2023-03-31T12:39:58;11.90;99.90
1383;DHT22;685;47.196;11.880;2023-03-31T12:42:48;12.00;99.90
1383;DHT22;685;47.196;11.880;2023-03-31T12:45:25;11.60;99.90
1383;DHT22;685;47.196;11.880;2023-03-31T12:48:16;11.40;99.90
1383;DHT22;685;47.196;11.880;2023-03-31T12:51:00;11.30;99.90
1383;DHT22;685;47.196;11.880;2023-03-31T12:53:37;11.20;99.90
1383;DHT22;685;47.196;11.880;2023-03-31T12:56:05;11.20;99.90
1383;DHT22;685;47.196;11.880;2023-03-31T12:58:46;11.10;99.90
1383;DHT22;685;47.196;11.880;2023-03-31T13:01:15;11.00;99.90
1383;DHT22;685;47.196;11.880;2023-03-31T13:03:45;10.90;99.90
1383;DHT22;685;47.196;11.880;2023-03-31T13:09:45;10.70;99.90
1383;DHT22;685;47.196;11.880;2023-03-31T13:12:15;10.70;99.90
1383;DHT22;685;47.196;11.880;2023-03-31T13:14:44;10.80;99.90
1383;DHT22;685;47.196;11.880;2023-03-31T13:17:19;10.70;99.90
1383;DHT22;685;47.196;11.880;2023-03-31T13:19:47;10.70;99.90
1383;DHT22;685;47.196;11.880;2023-03-31T13:22:29;10.60;99.90
1383;DHT22;685;47.196;11.880;2023-03-31T13:28:08;10.40;99.90
1383;DHT22;685;47.196;11.880;2023-03-31T13:30:47;10.30;99.90
1383;DHT22;685;47.196;11.880;2023-03-31T13:33:22;10.20;99.90
1383;DHT22;685;47.196;11.880;2023-03-31T13:35:56;10.20;99.90
1383;DHT22;685;47.196;11.880;2023-03-31T13:38:34;10.20;99.90
1383;DHT22;685;47.196;11.880;2023-03-31T13:44:06;9.80;99.90
1383;DHT22;685;47.196;11.880;2023-03-31T13:46:56;9.70;99.90
1383;DHT22;685;47.196;11.880;2023-03-31T13:49:52;9.50;99.90
1383;DHT22;685;47.196;11.880;2023-03-31T13:52:30;9.50;99.90
1383;DHT22;685;47.196;11.880;2023-03-31T13:55:11;9.20;99.90
1383;DHT22;685;47.196;11.880;2023-03-31T13:58:03;8.90;99.90
1383;DHT22;685;47.196;11.880;2023-03-31T14:00:43;9.10;99.90
1383;DHT22;685;47.196;11.880;2023-03-31T14:03:33;9.10;99.90
1383;DHT22;685;47.196;11.880;2023-03-31T14:06:05;9.30;99.90
1383;DHT22;685;47.196;11.880;2023-03-31T14:08:45;9.30;99.90
1383;DHT22;685;47.196;11.880;2023-03-31T14:11:22;9.60;99.90
1383;DHT22;685;47.196;11.880;2023-03-31T14:14:04;10.20;99.90
1383;DHT22;685;47.196;11.880;2023-03-31T14:16:36;10.20;99.90
1383;DHT22;685;47.196;11.880;2023-03-31T14:19:20;10.10;99.90
1383;DHT22;685;47.196;11.880;2023-03-31T14:21:59;9.90;99.90
1383;DHT22;685;47.196;11.880;2023-03-31T14:24:32;9.80;99.90
1383;DHT22;685;47.196;11.880;2023-03-31T14:27:06;9.80;99.90
1383;DHT22;685;47.196;11.880;2023-03-31T14:29:41;9.60;99.90
1383;DHT22;685;47.196;11.880;2023-03-31T14:32:17;9.40;99.90
1383;DHT22;685;47.196;11.880;2023-03-31T14:35:07;9.30;99.90
1383;DHT22;685;47.196;11.880;2023-03-31T14:37:39;9.30;99.90
1383;DHT22;685;47.196;11.880;2023-03-31T14:40:12;9.30;99.90
1383;DHT22;685;47.196;11.880;2023-03-31T14:42:41;9.30;99.90
1383;DHT22;685;47.196;11.880;2023-03-31T14:45:16;9.20;99.90
1383;DHT22;685;47.196;11.880;2023-03-31T14:47:54;9.30;99.90
1383;DHT22;685;47.196;11.880;2023-03-31T14:50:26;9.00;99.90
1383;DHT22;685;47.196;11.880;2023-03-31T14:52:54;8.80;99.90
1383;DHT22;685;47.196;11.880;2023-03-31T14:55:25;8.90;99.90
1383;DHT22;685;47.196;11.880;2023-03-31T14:57:54;8.80;99.90
1383;DHT22;685;47.196;11.880;2023-03-31T15:00:25;8.80;99.90
1383;DHT22;685;47.196;11.880;2023-03-31T15:02:54;8.70;99.90
1383;DHT22;685;47.196;11.880;2023-03-31T15:05:27;8.80;99.90
1383;DHT22;685;47.196;11.880;2023-03-31T15:07:58;8.80;99.90
1383;DHT22;685;47.196;11.880;2023-03-31T15:10:30;8.90;99.90
1383;DHT22;685;47.196;11.880;2023-03-31T15:13:01;9.00;99.90
1383;DHT22;685;47.196;11.880;2023-03-31T15:15:32;9.00;99.90
1383;DHT22;685;47.196;11.880;2023-03-31T15:18:01;8.90;99.90
1383;DHT22;685;47.196;11.880;2023-03-31T15:20:30;9.00;99.90
1383;DHT22;685;47.196;11.880;2023-03-31T15:22:58;9.00;99.90
1383;DHT22;685;47.196;11.880;2023-03-31T15:25:28;9.10;99.90
1383;DHT22;685;47.196;11.880;2023-03-31T15:27:59;9.10;99.90
1383;DHT22;685;47.196;11.880;2023-03-31T15:30:28;9.30;99.90
1383;DHT22;685;47.196;11.880;2023-03-31T15:32:55;9.40;99.90
1383;DHT22;685;47.196;11.880;2023-03-31T15:35:26;9.30;99.90
1383;DHT22;685;47.196;11.880;2023-03-31T15:37:56;9.20;99.90
1383;DHT22;685;47.196;11.880;2023-03-31T15:40:25;9.00;99.90
1383;DHT22;685;47.196;11.880;2023-03-31T15:42:55;9.00;99.90
1383;DHT22;685;47.196;11.880;2023-03-31T15:45:44;9.00;99.90
1383;DHT22;685;47.196;11.880;2023-03-31T15:48:17;8.90;99.90
1383;DHT22;685;47.196;11.880;2023-03-31T15:50:46;8.90;99.90
1383;DHT22;685;47.196;11.880;2023-03-31T15:53:28;8.90;99.90
1383;DHT22;685;47.196;11.880;2023-03-31T15:55:57;9.00;99.90
1383;DHT22;685;47.196;11.880;2023-03-31T15:58:52;9.00;99.90
1383;DHT22;685;47.196;11.880;2023-03-31T16:01:19;8.90;99.90
1383;DHT22;685;47.196;11.880;2023-03-31T16:03:46;8.90;99.90
1383;DHT22;685;47.196;11.880;2023-03-31T16:06:22;9.00;99.90
1383;DHT22;685;47.196;11.880;2023-03-31T16:08:58;9.10;99.90
1383;DHT22;685;47.196;11.880;2023-03-31T16:11:34;9.20;99.90
1383;DHT22;685;47.196;11.880;2023-03-31T16:14:07;9.10;99.90
1383;DHT22;685;47.196;11.880;2023-03-31T16:16:36;8.90;99.90
1383;DHT22;685;47.196;11.880;2023-03-31T16:19:06;8.90;99.90
1383;DHT22;685;47.196;11.880;2023-03-31T16:21:39;8.90;99.90
1383;DHT22;685;47.196;11.880;2023-03-31T16:24:07;9.00;99.90
1383;DHT22;685;47.196;11.880;2023-03-31T16:26:35;9.10;99.90
1383;DHT22;685;47.196;11.880;2023-03-31T16:29:04;9.10;99.90
1383;DHT22;685;47.196;11.880;2023-03-31T16:31:34;8.80;99.90
1383;DHT22;685;47.196;11.880;2023-03-31T16:34:03;8.80;99.90
1383;DHT22;685;47.196;11.880;2023-03-31T16:36:30;8.80;99.90
1383;DHT22;685;47.196;11.880;2023-03-31T16:38:58;8.90;99.90
1383;DHT22;685;47.196;11.880;2023-03-31T16:41:30;8.80;99.90
1383;DHT22;685;47.196;11.880;2023-03-31T16:43:57;8.80;99.90
1383;DHT22;685;47.196;11.880;2023-03-31T16:46:24;8.70;99.90
1383;DHT22;685;47.196;11.880;2023-03-31T16:48:51;8.80;99.90
1383;DHT22;685;47.196;11.880;2023-03-31T16:51:18;8.90;99.90
1383;DHT22;685;47.196;11.880;2023-03-31T16:53:46;8.90;99.90
1383;DHT22;685;47.196;11.880;2023-03-31T16:56:14;8.80;99.90
1383;DHT22;685;47.196;11.880;2023-03-31T16:58:41;8.80;99.90
1383;DHT22;685;47.196;11.880;2023-03-31T17:01:09;8.90;99.90
1383;DHT22;685;47.196;11.880;2023-03-31T17:03:37;8.90;99.90
1383;DHT22;685;47.196;11.880;2023-03-31T17:06:08;8.80;99.90